Time;durP1;ratioP1;P1;durP2;ratioP2;P2;SDS_P1;SDS_P2;PMS_P1;PMS_P2;Temp;Humidity;BMP_temperature;BMP_pressure;BME280_temperature;BME280_humidity;BME280_pressure;Samples;Min_cycle;Max_cycle;Signal;HPM_P1;HPM_P2
2023/06/29 00:01:02;;;;;;;3.50;1.63;;;14.30;99.90;;;;;;5100109;28;20458;-77
2023/06/29 00:03:29;;;;;;;3.73;1.60;;;14.30;99.90;;;;;;5105287;28;20450;-78
2023/06/29 00:05:56;;;;;;;1.83;1.60;;;14.20;99.90;;;;;;5102227;27;20482;-78
2023/06/29 00:08:24;;;;;;;2.23;1.57;;;14.20;99.90;;;;;;5109460;28;20913;-77
2023/06/29 00:10:53;;;;;;;2.27;2.07;;;14.20;99.90;;;;;;5099860;28;20466;-77
2023/06/29 00:13:20;;;;;;;2.23;2.03;;;14.00;99.90;;;;;;5108905;28;20447;-79
2023/06/29 00:15:48;;;;;;;2.63;2.37;;;13.70;99.90;;;;;;5118880;28;20500;-80
2023/06/29 00:18:15;;;;;;;2.20;1.40;;;13.60;99.90;;;;;;5121472;28;20909;-78
2023/06/29 00:20:42;;;;;;;1.80;1.70;;;13.70;99.90;;;;;;5105128;28;20500;-77
2023/06/29 00:23:09;;;;;;;4.70;1.80;;;13.80;99.90;;;;;;5107186;27;20459;-76
2023/06/29 00:25:38;;;;;;;1.77;1.67;;;13.70;99.90;;;;;;5108205;27;20478;-80
2023/06/29 00:28:07;;;;;;;1.60;1.50;;;13.60;99.90;;;;;;5105832;28;20565;-78
2023/06/29 00:30:33;;;;;;;5.90;1.67;;;13.60;99.90;;;;;;5103644;28;20450;-80
2023/06/29 00:33:00;;;;;;;1.90;1.80;;;13.60;99.90;;;;;;5108035;28;20500;-77
2023/06/29 00:35:27;;;;;;;1.90;1.80;;;13.70;99.90;;;;;;5105371;27;20482;-78
2023/06/29 00:37:54;;;;;;;2.27;1.83;;;13.80;99.90;;;;;;5106900;27;20473;-77
2023/06/29 00:40:21;;;;;;;4.33;2.53;;;13.70;99.90;;;;;;5102273;28;21114;-78
2023/06/29 00:42:48;;;;;;;2.80;2.40;;;13.80;99.90;;;;;;5105847;28;20474;-77
2023/06/29 00:45:17;;;;;;;4.10;1.70;;;13.80;99.90;;;;;;5107624;28;20446;-77
2023/06/29 00:47:44;;;;;;;2.30;2.20;;;13.80;99.90;;;;;;5106006;28;20451;-77
2023/06/29 00:50:12;;;;;;;2.30;2.07;;;13.80;99.90;;;;;;5110512;27;20524;-77
2023/06/29 00:52:39;;;;;;;2.70;2.00;;;13.80;99.90;;;;;;5092819;28;20442;-78
2023/06/29 00:55:07;;;;;;;2.37;2.07;;;13.80;99.90;;;;;;5105503;28;20516;-80
2023/06/29 00:57:34;;;;;;;4.13;1.80;;;13.90;99.90;;;;;;5107090;28;20484;-77
2023/06/29 01:00:01;;;;;;;2.77;2.57;;;13.80;99.90;;;;;;5107219;28;20486;-78
2023/06/29 01:02:30;;;;;;;2.67;2.10;;;13.70;99.90;;;;;;5102906;28;20469;-79
2023/06/29 01:04:58;;;;;;;2.70;1.80;;;13.70;99.90;;;;;;5104447;28;20792;-77
2023/06/29 01:07:31;;;;;;;1.83;1.70;;;13.60;99.90;;;;;;5107724;28;20439;-78
2023/06/29 01:10:00;;;;;;;2.00;1.30;;;13.40;99.90;;;;;;5101406;28;20593;-79
2023/06/29 01:12:27;;;;;;;2.13;1.40;;;13.30;99.90;;;;;;5100391;28;20467;-80
2023/06/29 01:14:55;;;;;;;1.60;1.50;;;13.20;99.90;;;;;;5106050;28;20979;-78
2023/06/29 01:17:27;;;;;;;3.17;2.80;;;13.10;99.90;;;;;;5108014;28;20535;-79
2023/06/29 01:19:56;;;;;;;4.10;1.83;;;13.00;99.90;;;;;;5104438;28;21060;-78
2023/06/29 01:22:28;;;;;;;3.40;2.27;;;12.80;99.90;;;;;;5107231;27;20466;-78
2023/06/29 01:24:57;;;;;;;1.70;1.60;;;12.90;99.90;;;;;;5100986;28;20483;-80
2023/06/29 01:27:24;;;;;;;2.23;2.03;;;12.90;99.90;;;;;;5109999;27;20478;-78
2023/06/29 01:29:55;;;;;;;1.60;1.50;;;12.90;99.90;;;;;;5101713;28;20482;-79
2023/06/29 01:32:31;;;;;;;3.73;2.23;;;12.80;99.90;;;;;;5106447;28;20455;-77
2023/06/29 01:34:58;;;;;;;3.60;2.50;;;12.80;99.90;;;;;;5101374;28;20594;-78
2023/06/29 01:37:29;;;;;;;2.13;2.03;;;12.90;99.90;;;;;;5100037;27;20451;-78
2023/06/29 01:40:03;;;;;;;2.47;2.27;;;12.80;99.90;;;;;;5105122;27;20494;-79
2023/06/29 01:42:33;;;;;;;2.20;2.00;;;12.80;99.90;;;;;;5107652;28;20458;-77
2023/06/29 01:45:01;;;;;;;2.43;2.23;;;12.70;99.90;;;;;;5122716;27;20471;-77
2023/06/29 01:47:29;;;;;;;2.17;1.97;;;12.70;99.90;;;;;;5115527;27;20934;-77
2023/06/29 01:49:56;;;;;;;4.23;2.43;;;12.70;99.90;;;;;;5104713;28;20529;-77
2023/06/29 01:52:23;;;;;;;3.30;2.10;;;12.80;99.90;;;;;;5109184;28;20527;-77
2023/06/29 01:54:51;;;;;;;3.10;1.90;;;12.70;99.90;;;;;;5105415;28;20453;-77
2023/06/29 01:57:19;;;;;;;3.00;2.33;;;12.70;99.90;;;;;;5100387;27;20950;-77
2023/06/29 01:59:47;;;;;;;2.27;2.17;;;12.60;99.90;;;;;;5105190;28;21208;-78
2023/06/29 02:02:14;;;;;;;1.77;1.67;;;12.80;99.90;;;;;;5104064;28;20465;-78
2023/06/29 02:04:41;;;;;;;2.37;2.17;;;12.90;99.90;;;;;;5107438;28;20539;-80
2023/06/29 02:07:08;;;;;;;3.17;2.33;;;12.90;99.90;;;;;;5103324;28;20548;-76
2023/06/29 02:09:35;;;;;;;2.50;2.30;;;12.80;99.90;;;;;;5108074;27;20490;-78
2023/06/29 02:12:02;;;;;;;2.37;2.23;;;12.70;99.90;;;;;;5095752;28;20872;-77
2023/06/29 02:14:30;;;;;;;1.60;1.50;;;12.60;99.90;;;;;;5103687;28;20880;-77
2023/06/29 02:16:57;;;;;;;1.67;1.57;;;12.40;99.90;;;;;;5102963;28;20516;-76
2023/06/29 02:19:24;;;;;;;1.93;1.83;;;12.40;99.90;;;;;;5102070;28;20523;-77
2023/06/29 02:21:51;;;;;;;1.93;1.83;;;12.40;99.90;;;;;;5101753;28;20783;-79
2023/06/29 02:24:18;;;;;;;3.33;2.50;;;12.40;99.90;;;;;;5101974;28;20465;-78
2023/06/29 02:26:45;;;;;;;3.60;2.33;;;12.40;99.90;;;;;;5106110;28;20513;-77
2023/06/29 02:29:12;;;;;;;3.17;2.10;;;12.40;99.90;;;;;;5104447;28;20526;-77
2023/06/29 02:31:40;;;;;;;2.93;2.37;;;12.40;99.90;;;;;;5097019;28;20547;-78
2023/06/29 02:34:07;;;;;;;2.40;1.87;;;12.40;99.90;;;;;;5106919;28;20852;-78
2023/06/29 02:36:34;;;;;;;2.60;2.40;;;12.30;99.90;;;;;;5104579;28;20478;-78
2023/06/29 02:39:01;;;;;;;2.60;2.20;;;12.20;99.90;;;;;;5105087;27;20490;-78
2023/06/29 02:41:28;;;;;;;2.27;2.17;;;12.20;99.90;;;;;;5104775;28;20493;-78
2023/06/29 02:43:55;;;;;;;1.90;1.77;;;12.10;99.90;;;;;;5102363;28;20502;-78
2023/06/29 02:46:22;;;;;;;3.17;2.60;;;11.90;99.90;;;;;;5092435;28;20539;-79
2023/06/29 02:48:50;;;;;;;2.77;2.60;;;11.90;99.90;;;;;;5102276;28;20672;-78
2023/06/29 02:51:17;;;;;;;2.40;2.20;;;11.80;99.90;;;;;;5106541;28;20514;-78
2023/06/29 02:53:44;;;;;;;2.17;2.07;;;11.80;99.90;;;;;;5109331;28;20567;-79
2023/06/29 02:56:11;;;;;;;2.40;2.20;;;11.70;99.90;;;;;;5107431;28;21275;-81
2023/06/29 02:58:38;;;;;;;4.70;2.07;;;11.70;99.90;;;;;;5106705;28;21171;-78
2023/06/29 03:01:05;;;;;;;2.37;2.07;;;11.80;99.90;;;;;;5105560;28;20529;-80
2023/06/29 03:03:32;;;;;;;2.30;2.10;;;11.80;99.90;;;;;;5103485;27;20501;-78
2023/06/29 03:06:00;;;;;;;1.93;1.83;;;11.80;99.90;;;;;;5104871;27;20463;-79
2023/06/29 03:08:27;;;;;;;3.43;2.40;;;11.80;99.90;;;;;;5106928;28;20591;-80
2023/06/29 03:10:54;;;;;;;2.20;1.97;;;11.80;99.90;;;;;;5108977;28;20490;-80
2023/06/29 03:13:21;;;;;;;2.10;2.00;;;11.70;99.90;;;;;;5132640;28;20442;-78
2023/06/29 03:15:48;;;;;;;3.20;2.60;;;11.70;99.90;;;;;;5117939;27;20458;-78
2023/06/29 03:18:15;;;;;;;3.00;2.80;;;11.80;99.90;;;;;;5111872;28;20574;-78
2023/06/29 03:20:42;;;;;;;4.70;2.20;;;11.80;99.90;;;;;;5104742;28;20539;-80
2023/06/29 03:23:10;;;;;;;3.80;2.17;;;11.80;99.90;;;;;;5107910;28;20439;-79
2023/06/29 03:25:37;;;;;;;2.63;2.27;;;11.90;99.90;;;;;;5114488;27;20898;-78
2023/06/29 03:28:04;;;;;;;2.57;2.37;;;12.00;99.90;;;;;;5109029;28;20566;-78
2023/06/29 03:30:31;;;;;;;2.37;2.17;;;11.90;99.90;;;;;;5103956;28;20514;-77
2023/06/29 03:32:59;;;;;;;2.80;2.60;;;11.90;99.90;;;;;;5106858;28;20462;-77
2023/06/29 03:35:26;;;;;;;1.80;1.70;;;11.90;99.90;;;;;;5107433;27;20821;-77
2023/06/29 03:37:53;;;;;;;2.00;1.90;;;11.80;99.90;;;;;;5102401;28;20989;-78
2023/06/29 03:40:22;;;;;;;6.10;2.57;;;11.80;99.90;;;;;;5102828;27;20889;-77
2023/06/29 03:42:49;;;;;;;2.60;2.40;;;11.80;99.90;;;;;;5102949;28;20451;-77
2023/06/29 03:45:17;;;;;;;2.90;1.70;;;11.80;99.90;;;;;;5107708;28;20546;-77
2023/06/29 03:47:43;;;;;;;3.50;2.40;;;11.90;99.90;;;;;;5107042;27;20550;-80
2023/06/29 03:50:11;;;;;;;3.13;2.30;;;12.00;99.90;;;;;;5102239;27;20510;-77
2023/06/29 03:52:38;;;;;;;5.73;3.20;;;12.10;99.90;;;;;;5109577;28;20457;-78
2023/06/29 03:55:06;;;;;;;5.63;2.80;;;12.10;99.90;;;;;;5108474;27;20475;-77
2023/06/29 03:57:34;;;;;;;4.03;2.33;;;12.10;99.90;;;;;;5099743;28;20550;-77
2023/06/29 04:00:01;;;;;;;2.93;2.70;;;12.30;99.90;;;;;;5104294;28;20466;-77
2023/06/29 04:02:28;;;;;;;2.70;2.40;;;12.40;99.90;;;;;;5106294;28;20491;-77
2023/06/29 04:04:55;;;;;;;3.40;3.10;;;12.40;99.90;;;;;;5099477;28;20508;-78
2023/06/29 04:07:22;;;;;;;2.83;2.67;;;12.40;99.90;;;;;;5108045;28;20479;-78
2023/06/29 04:09:48;;;;;;;2.40;2.20;;;12.40;99.90;;;;;;5102279;27;20955;-79
2023/06/29 04:12:15;;;;;;;4.13;2.20;;;12.50;99.90;;;;;;5102702;28;20495;-77
2023/06/29 04:14:45;;;;;;;2.93;2.33;;;12.60;99.90;;;;;;5105064;28;20597;-77
2023/06/29 04:17:12;;;;;;;4.00;2.17;;;12.70;99.90;;;;;;5100894;28;20477;-79
2023/06/29 04:19:39;;;;;;;4.20;2.80;;;12.70;99.90;;;;;;5107816;28;20531;-77
2023/06/29 04:22:07;;;;;;;2.97;2.67;;;12.90;99.90;;;;;;5102213;28;20456;-78
2023/06/29 04:24:33;;;;;;;2.33;2.13;;;13.00;99.90;;;;;;5101270;27;20498;-80
2023/06/29 04:27:01;;;;;;;4.10;2.57;;;13.10;99.90;;;;;;5108370;27;20490;-78
2023/06/29 04:29:28;;;;;;;2.80;2.60;;;13.10;99.90;;;;;;5107158;28;20482;-79
2023/06/29 04:31:57;;;;;;;2.50;2.40;;;13.40;99.90;;;;;;5105894;28;20535;-79
2023/06/29 04:34:24;;;;;;;1.80;1.70;;;13.90;99.90;;;;;;5103835;28;20459;-78
2023/06/29 04:36:51;;;;;;;2.60;2.50;;;14.20;99.90;;;;;;5108199;28;20544;-78
2023/06/29 04:39:18;;;;;;;4.00;2.67;;;14.20;99.90;;;;;;5114580;28;20454;-78
2023/06/29 04:41:46;;;;;;;2.60;2.40;;;14.20;99.90;;;;;;5113178;28;20483;-78
2023/06/29 04:44:13;;;;;;;4.53;2.60;;;14.30;99.90;;;;;;5115590;28;20459;-81
2023/06/29 04:46:41;;;;;;;2.23;2.13;;;14.20;99.90;;;;;;5111465;28;20459;-78
2023/06/29 04:49:09;;;;;;;3.27;3.03;;;14.20;99.90;;;;;;5104346;28;20484;-78
2023/06/29 04:51:37;;;;;;;2.30;2.10;;;14.20;99.90;;;;;;5101605;27;20460;-76
2023/06/29 04:54:05;;;;;;;3.20;2.80;;;14.30;99.90;;;;;;5104186;28;20504;-77
2023/06/29 04:56:32;;;;;;;3.30;2.60;;;14.30;99.90;;;;;;5106707;27;20484;-78
2023/06/29 04:58:59;;;;;;;5.03;2.43;;;14.30;99.90;;;;;;5102151;28;20475;-77
2023/06/29 05:01:26;;;;;;;3.20;3.00;;;14.50;99.90;;;;;;5099711;28;20486;-76
2023/06/29 05:03:53;;;;;;;2.53;2.33;;;14.50;99.90;;;;;;5106980;28;20962;-78
2023/06/29 05:06:21;;;;;;;2.63;2.43;;;14.60;99.90;;;;;;5105855;28;20486;-79
2023/06/29 05:08:48;;;;;;;5.10;3.23;;;14.70;99.90;;;;;;5102635;28;20450;-78
2023/06/29 05:11:15;;;;;;;3.50;2.83;;;14.80;99.90;;;;;;5104144;28;20638;-76
2023/06/29 05:13:42;;;;;;;3.50;2.63;;;15.00;99.90;;;;;;5100010;28;20486;-76
2023/06/29 05:16:09;;;;;;;3.47;2.10;;;15.00;99.90;;;;;;5101083;28;20447;-75
2023/06/29 05:18:37;;;;;;;2.40;2.20;;;15.20;99.90;;;;;;5101575;27;20450;-79
2023/06/29 05:21:04;;;;;;;6.47;3.70;;;15.20;99.90;;;;;;5113772;27;20846;-77
2023/06/29 05:23:32;;;;;;;7.00;3.27;;;15.30;99.90;;;;;;5103657;28;20486;-76
2023/06/29 05:25:59;;;;;;;4.50;4.10;;;15.40;99.90;;;;;;5106471;27;20478;-83
2023/06/29 05:28:26;;;;;;;3.57;2.93;;;15.70;99.90;;;;;;5104647;27;20847;-76
2023/06/29 05:30:53;;;;;;;2.60;1.80;;;16.00;99.90;;;;;;5105593;28;21082;-78
2023/06/29 05:33:20;;;;;;;2.60;2.40;;;16.20;99.90;;;;;;5102725;28;20495;-78
2023/06/29 05:35:47;;;;;;;2.77;2.50;;;16.30;99.90;;;;;;5101957;28;20438;-78
2023/06/29 05:38:14;;;;;;;4.17;2.97;;;16.30;99.90;;;;;;5103039;28;20548;-76
2023/06/29 05:40:42;;;;;;;2.93;2.57;;;16.20;99.90;;;;;;5100662;27;20471;-79
2023/06/29 05:43:09;;;;;;;5.63;3.20;;;16.30;99.90;;;;;;5104426;28;20737;-77
2023/06/29 05:45:37;;;;;;;3.10;2.90;;;16.40;99.90;;;;;;5106669;27;20524;-78
2023/06/29 05:48:05;;;;;;;4.60;3.40;;;16.30;99.90;;;;;;5103132;27;20459;-78
2023/06/29 05:50:32;;;;;;;4.17;3.23;;;16.50;99.90;;;;;;5097593;28;20486;-78
2023/06/29 05:52:59;;;;;;;3.90;3.00;;;16.80;99.90;;;;;;5101537;28;20482;-76
2023/06/29 05:55:26;;;;;;;4.20;2.83;;;17.00;99.90;;;;;;5104720;28;20452;-79
2023/06/29 05:57:54;;;;;;;3.43;3.13;;;16.80;99.90;;;;;;5102413;28;20460;-76
2023/06/29 06:00:22;;;;;;;5.37;2.77;;;16.90;99.90;;;;;;5106651;28;20498;-77
2023/06/29 06:02:49;;;;;;;3.30;2.93;;;16.90;99.90;;;;;;5104091;28;20461;-76
2023/06/29 06:05:16;;;;;;;4.03;3.63;;;17.10;99.90;;;;;;5106957;28;20929;-76
2023/06/29 06:07:43;;;;;;;3.33;3.13;;;17.00;99.90;;;;;;5112676;28;20448;-78
2023/06/29 06:10:11;;;;;;;2.67;2.47;;;17.00;99.90;;;;;;5112908;28;20486;-76
2023/06/29 06:12:38;;;;;;;2.23;2.13;;;16.90;99.90;;;;;;5104981;28;20459;-78
2023/06/29 06:15:10;;;;;;;3.37;2.80;;;17.20;99.90;;;;;;5107351;27;20494;-78
2023/06/29 06:17:37;;;;;;;2.97;2.77;;;17.50;99.90;;;;;;5105808;28;20440;-77
2023/06/29 06:20:05;;;;;;;3.57;2.77;;;17.80;99.90;;;;;;5106372;28;20470;-76
2023/06/29 06:22:33;;;;;;;3.43;3.20;;;18.00;99.40;;;;;;5102157;28;20541;-78
2023/06/29 06:25:00;;;;;;;3.90;3.17;;;18.20;99.00;;;;;;5104566;28;20487;-76
2023/06/29 06:27:27;;;;;;;3.07;2.87;;;18.10;99.00;;;;;;5103250;28;21190;-75
2023/06/29 06:29:54;;;;;;;4.77;2.70;;;18.30;98.30;;;;;;5106943;28;20857;-76
2023/06/29 06:32:24;;;;;;;3.83;3.30;;;18.50;98.70;;;;;;5105418;27;20456;-78
2023/06/29 06:34:51;;;;;;;3.20;2.67;;;18.50;97.90;;;;;;5099731;28;20461;-77
2023/06/29 06:37:19;;;;;;;5.03;3.03;;;18.80;97.40;;;;;;5105562;28;20450;-77
2023/06/29 06:39:46;;;;;;;3.00;2.20;;;19.10;97.70;;;;;;5106754;28;20446;-76
2023/06/29 06:42:12;;;;;;;3.10;2.37;;;19.00;97.20;;;;;;5104588;28;20459;-76
2023/06/29 06:44:50;;;;;;;2.83;2.63;;;19.10;97.10;;;;;;5103478;28;20466;-77
2023/06/29 06:47:17;;;;;;;3.70;2.13;;;19.20;97.60;;;;;;5104577;28;20545;-79
2023/06/29 06:49:46;;;;;;;6.40;2.70;;;19.20;97.50;;;;;;5101518;28;20511;-78
2023/06/29 06:52:13;;;;;;;4.13;2.70;;;19.40;98.00;;;;;;5105100;28;20451;-77
2023/06/29 06:54:40;;;;;;;6.93;2.20;;;19.40;99.30;;;;;;5104702;28;20954;-79
2023/06/29 06:57:07;;;;;;;4.53;2.23;;;19.70;97.10;;;;;;5103128;28;20462;-78
2023/06/29 06:59:35;;;;;;;7.10;2.57;;;19.80;95.70;;;;;;5102241;28;20801;-79
2023/06/29 07:02:02;;;;;;;3.33;1.90;;;19.80;98.20;;;;;;5103192;28;20972;-77
2023/06/29 07:04:29;;;;;;;8.07;2.53;;;19.80;96.90;;;;;;5106141;28;20522;-78
2023/06/29 07:06:57;;;;;;;2.73;2.17;;;19.80;97.10;;;;;;5100976;28;20493;-76
2023/06/29 07:09:24;;;;;;;4.40;2.40;;;20.10;96.10;;;;;;5103078;28;20470;-77
2023/06/29 07:11:51;;;;;;;3.30;2.70;;;19.90;97.30;;;;;;5103657;28;20957;-76
2023/06/29 07:14:18;;;;;;;4.07;3.07;;;20.10;96.90;;;;;;5104973;28;20466;-78
2023/06/29 07:16:45;;;;;;;4.63;2.00;;;19.90;96.40;;;;;;5097841;28;20478;-78
2023/06/29 07:19:13;;;;;;;3.13;2.93;;;20.10;96.80;;;;;;5101515;28;20470;-77
2023/06/29 07:21:40;;;;;;;1.60;1.50;;;19.70;95.60;;;;;;5103099;28;20603;-77
2023/06/29 07:24:10;;;;;;;2.70;2.13;;;19.70;96.20;;;;;;5106839;28;20539;-76
2023/06/29 07:26:37;;;;;;;3.53;2.00;;;19.90;95.60;;;;;;5105829;28;20562;-76
2023/06/29 07:29:05;;;;;;;3.40;1.73;;;19.80;95.00;;;;;;5104815;28;20458;-76
2023/06/29 07:31:32;;;;;;;2.40;1.70;;;19.80;95.20;;;;;;5108353;28;20489;-77
2023/06/29 07:33:59;;;;;;;2.40;2.07;;;20.00;94.00;;;;;;5104404;28;20524;-77
2023/06/29 07:36:27;;;;;;;6.80;3.10;;;20.40;92.60;;;;;;5108502;28;20464;-78
2023/06/29 07:38:55;;;;;;;4.83;2.30;;;20.20;92.40;;;;;;5119387;27;20451;-77
2023/06/29 07:41:23;;;;;;;2.47;2.10;;;20.20;93.10;;;;;;5108474;27;20509;-78
2023/06/29 07:43:53;;;;;;;2.67;2.50;;;20.00;93.00;;;;;;5111548;28;20451;-77
2023/06/29 07:46:20;;;;;;;3.77;1.97;;;20.30;92.10;;;;;;5109943;27;20515;-78
2023/06/29 07:48:47;;;;;;;2.70;2.23;;;20.70;93.10;;;;;;5106885;28;20449;-78
2023/06/29 07:51:14;;;;;;;2.80;2.60;;;21.30;93.50;;;;;;5104163;28;20894;-79
2023/06/29 07:53:41;;;;;;;4.40;2.53;;;21.30;89.30;;;;;;5106795;28;20452;-77
2023/06/29 07:56:08;;;;;;;2.50;1.70;;;21.20;89.90;;;;;;5108427;28;20446;-79
2023/06/29 07:58:37;;;;;;;3.47;2.97;;;21.20;88.80;;;;;;5104235;28;20527;-78
2023/06/29 08:01:04;;;;;;;5.90;3.10;;;21.10;89.60;;;;;;5103664;28;20446;-79
2023/06/29 08:03:32;;;;;;;7.40;2.47;;;21.50;86.00;;;;;;5102730;28;20837;-78
2023/06/29 08:05:59;;;;;;;2.17;1.90;;;21.70;82.00;;;;;;5104835;28;20505;-79
2023/06/29 08:08:29;;;;;;;2.30;1.77;;;21.80;82.20;;;;;;5103122;27;20498;-76
2023/06/29 08:10:58;;;;;;;2.20;1.77;;;22.20;79.30;;;;;;5098271;27;20704;-78
2023/06/29 08:13:26;;;;;;;2.67;2.47;;;22.30;86.30;;;;;;5098541;28;20495;-77
2023/06/29 08:15:55;;;;;;;4.40;1.97;;;22.10;80.80;;;;;;5105920;28;20450;-75
2023/06/29 08:18:22;;;;;;;2.27;2.00;;;22.00;78.90;;;;;;5107132;28;20474;-78
2023/06/29 08:20:49;;;;;;;2.40;2.00;;;22.40;80.80;;;;;;5105631;27;20503;-77
2023/06/29 08:23:16;;;;;;;4.27;2.33;;;22.70;82.60;;;;;;5105224;28;20494;-78
2023/06/29 08:25:43;;;;;;;2.77;1.77;;;22.60;87.10;;;;;;5105506;28;20988;-75
2023/06/29 08:28:10;;;;;;;3.80;2.67;;;22.50;80.30;;;;;;5105039;28;20478;-76
2023/06/29 08:30:37;;;;;;;2.33;1.70;;;22.70;79.20;;;;;;5101140;28;20519;-76
2023/06/29 08:33:05;;;;;;;1.90;1.73;;;22.90;75.00;;;;;;5104092;28;20447;-76
2023/06/29 08:35:32;;;;;;;5.30;1.87;;;23.00;74.50;;;;;;5105292;28;20531;-75
2023/06/29 08:37:59;;;;;;;2.30;1.93;;;22.70;83.40;;;;;;5102880;28;20484;-77
2023/06/29 08:40:27;;;;;;;2.50;2.10;;;22.60;75.70;;;;;;5108581;28;20524;-76
2023/06/29 08:42:54;;;;;;;2.17;2.00;;;22.80;82.40;;;;;;5106348;28;20483;-77
2023/06/29 08:45:21;;;;;;;2.07;1.60;;;23.10;77.10;;;;;;5097761;27;21068;-77
2023/06/29 08:47:51;;;;;;;1.70;1.40;;;23.20;76.00;;;;;;5100386;28;20468;-76
2023/06/29 08:50:23;;;;;;;1.50;1.40;;;23.60;78.00;;;;;;5101943;28;20453;-74
2023/06/29 08:52:51;;;;;;;4.20;1.97;;;23.60;70.20;;;;;;5104713;28;20545;-76
2023/06/29 08:55:18;;;;;;;1.73;1.63;;;24.00;65.30;;;;;;5108252;27;21093;-74
2023/06/29 08:57:45;;;;;;;8.60;1.80;;;24.10;64.60;;;;;;5103863;28;20544;-75
2023/06/29 09:00:14;;;;;;;1.60;1.40;;;23.70;69.40;;;;;;5105994;28;20584;-76
2023/06/29 09:02:41;;;;;;;3.83;1.40;;;23.50;60.70;;;;;;5109759;27;20463;-77
2023/06/29 09:05:12;;;;;;;2.70;1.30;;;23.50;70.00;;;;;;5116707;28;20463;-77
2023/06/29 09:07:41;;;;;;;1.63;1.23;;;23.40;58.00;;;;;;5105586;28;20490;-75
2023/06/29 09:10:10;;;;;;;2.17;1.37;;;23.70;60.80;;;;;;5104901;28;20447;-78
2023/06/29 09:12:37;;;;;;;4.67;1.13;;;24.20;53.30;;;;;;5096973;27;21293;-78
2023/06/29 09:15:10;;;;;;;1.63;1.53;;;24.50;58.90;;;;;;5100483;28;20486;-79
2023/06/29 09:17:38;;;;;;;0.80;0.80;;;24.30;57.70;;;;;;5101184;28;20450;-77
2023/06/29 09:20:13;;;;;;;1.93;1.20;;;24.10;57.20;;;;;;5104126;28;20526;-76
2023/06/29 09:22:41;;;;;;;0.80;0.70;;;24.00;62.40;;;;;;5105600;27;20468;-77
2023/06/29 09:25:10;;;;;;;2.70;1.30;;;24.50;57.90;;;;;;5108522;27;21063;-77
2023/06/29 09:27:38;;;;;;;2.00;1.53;;;24.80;58.20;;;;;;5102367;27;20470;-77
2023/06/29 09:30:08;;;;;;;1.67;0.93;;;25.00;53.50;;;;;;5097477;28;20507;-78
2023/06/29 09:32:37;;;;;;;1.40;1.00;;;25.00;48.70;;;;;;5105375;28;20488;-77
2023/06/29 09:35:09;;;;;;;1.17;1.07;;;25.50;50.50;;;;;;5101055;28;20469;-75
2023/06/29 09:37:37;;;;;;;1.40;1.10;;;25.50;45.30;;;;;;5102582;28;21051;-75
2023/06/29 09:40:09;;;;;;;6.60;1.60;;;25.40;48.30;;;;;;5106990;28;20534;-78
2023/06/29 09:42:37;;;;;;;2.50;1.03;;;25.30;52.00;;;;;;5100266;28;20470;-78
2023/06/29 09:45:07;;;;;;;2.20;1.27;;;25.10;47.20;;;;;;5106136;28;20442;-76
2023/06/29 09:47:34;;;;;;;1.33;0.90;;;25.00;49.30;;;;;;5104227;28;20457;-76
2023/06/29 09:50:01;;;;;;;1.53;1.03;;;25.10;45.60;;;;;;5104423;28;20505;-76
2023/06/29 09:52:28;;;;;;;0.87;0.70;;;24.90;49.10;;;;;;5106807;28;20481;-75
2023/06/29 09:54:58;;;;;;;0.90;0.90;;;24.80;44.30;;;;;;5106127;28;20465;-76
2023/06/29 09:57:28;;;;;;;4.13;1.47;;;24.90;41.80;;;;;;5102541;28;20470;-77
2023/06/29 09:59:56;;;;;;;2.27;0.80;;;24.80;40.00;;;;;;5107569;27;20918;-78
2023/06/29 10:02:23;;;;;;;4.63;1.00;;;25.00;43.90;;;;;;5102552;28;20493;-78
2023/06/29 10:04:50;;;;;;;0.90;0.90;;;25.20;39.10;;;;;;5103006;28;20456;-76
2023/06/29 10:07:19;;;;;;;2.83;0.90;;;25.10;41.30;;;;;;5106499;28;20475;-76
2023/06/29 10:09:48;;;;;;;1.00;0.80;;;25.20;39.20;;;;;;5110770;27;20444;-76
2023/06/29 10:12:17;;;;;;;1.87;0.70;;;25.30;41.10;;;;;;5104764;28;20601;-76
2023/06/29 10:14:47;;;;;;;1.57;0.83;;;25.10;38.80;;;;;;5104690;28;20471;-77
2023/06/29 10:17:25;;;;;;;3.40;1.50;;;25.10;37.30;;;;;;5101832;28;20542;-78
2023/06/29 10:19:54;;;;;;;1.13;0.83;;;25.10;38.70;;;;;;5102163;28;20495;-75
2023/06/29 10:22:23;;;;;;;1.27;1.10;;;24.90;37.70;;;;;;5108899;27;20482;-76
2023/06/29 10:24:54;;;;;;;2.23;1.53;;;25.30;38.00;;;;;;5104040;28;20493;-77
2023/06/29 10:27:22;;;;;;;5.20;0.93;;;25.10;37.50;;;;;;5105419;28;20445;-77
2023/06/29 10:29:50;;;;;;;1.07;0.97;;;24.60;38.50;;;;;;5107409;28;20492;-78
2023/06/29 10:32:31;;;;;;;2.90;0.90;;;25.00;37.30;;;;;;5111262;28;20501;-78
2023/06/29 10:35:04;;;;;;;1.90;0.90;;;25.00;37.90;;;;;;5103390;28;20461;-75
2023/06/29 10:37:32;;;;;;;1.10;1.00;;;24.70;39.70;;;;;;5104612;28;20446;-77
2023/06/29 10:39:59;;;;;;;1.13;1.03;;;24.80;38.40;;;;;;5101109;28;20454;-78
2023/06/29 10:42:49;;;;;;;3.57;1.03;;;24.90;39.70;;;;;;5105793;28;20449;-76
2023/06/29 10:45:33;;;;;;;7.43;1.37;;;24.70;43.00;;;;;;5107382;28;20446;-76
2023/06/29 10:48:02;;;;;;;1.00;1.00;;;24.90;40.40;;;;;;5102676;28;20466;-77
2023/06/29 10:50:30;;;;;;;1.33;0.80;;;25.00;41.40;;;;;;5106945;28;20485;-78
2023/06/29 10:52:59;;;;;;;1.80;1.20;;;25.30;43.50;;;;;;5102944;28;20598;-77
2023/06/29 10:55:28;;;;;;;1.60;0.97;;;25.20;39.80;;;;;;5101704;28;20552;-83
2023/06/29 10:57:58;;;;;;;5.93;1.50;;;25.30;41.80;;;;;;5104303;28;20461;-75
2023/06/29 11:00:26;;;;;;;3.13;1.23;;;25.90;39.40;;;;;;5109308;28;20482;-75
2023/06/29 11:02:55;;;;;;;1.53;1.07;;;26.20;41.10;;;;;;5104076;27;20494;-76
2023/06/29 11:05:23;;;;;;;1.43;1.30;;;26.40;43.50;;;;;;5110700;28;20496;-75
2023/06/29 11:07:51;;;;;;;1.20;1.10;;;26.80;42.30;;;;;;5105238;28;20471;-77
2023/06/29 11:10:20;;;;;;;5.30;1.63;;;26.50;39.30;;;;;;5109381;28;20465;-78
2023/06/29 11:12:48;;;;;;;2.03;1.93;;;26.00;37.70;;;;;;5104597;28;20487;-76
2023/06/29 11:15:17;;;;;;;1.00;0.70;;;26.10;41.10;;;;;;5100600;28;20492;-76
2023/06/29 11:17:45;;;;;;;4.07;1.53;;;26.10;36.20;;;;;;5109472;28;20524;-77
2023/06/29 11:20:14;;;;;;;1.60;1.10;;;26.20;34.90;;;;;;5108210;28;20511;-78
2023/06/29 11:22:41;;;;;;;1.63;0.90;;;26.10;36.20;;;;;;5106442;28;20853;-75
2023/06/29 11:25:11;;;;;;;2.00;0.93;;;25.60;35.50;;;;;;5106286;27;20564;-76
2023/06/29 11:27:38;;;;;;;1.17;1.10;;;25.90;37.60;;;;;;5109155;27;20498;-78
2023/06/29 11:30:09;;;;;;;1.10;0.90;;;26.20;42.40;;;;;;5106827;28;20506;-75
2023/06/29 11:32:37;;;;;;;1.40;1.00;;;26.30;39.10;;;;;;5107724;27;20495;-77
2023/06/29 11:35:05;;;;;;;1.10;0.77;;;26.30;36.20;;;;;;5105449;28;20444;-76
2023/06/29 11:37:35;;;;;;;1.10;1.10;;;26.60;43.70;;;;;;5111219;28;20450;-76
2023/06/29 11:40:07;;;;;;;1.90;0.97;;;27.10;38.50;;;;;;5104735;28;20447;-78
2023/06/29 11:42:35;;;;;;;1.40;1.13;;;27.50;37.20;;;;;;5108038;28;20974;-78
2023/06/29 11:45:04;;;;;;;1.23;1.10;;;27.60;37.40;;;;;;5104930;27;20456;-75
2023/06/29 11:47:31;;;;;;;1.83;1.27;;;27.50;37.70;;;;;;5107021;28;20464;-78
2023/06/29 11:49:59;;;;;;;1.07;0.80;;;27.10;37.30;;;;;;5109435;27;20507;-75
2023/06/29 11:52:27;;;;;;;1.50;0.80;;;27.20;40.70;;;;;;5116662;27;20536;-76
2023/06/29 11:54:55;;;;;;;1.43;1.10;;;27.10;40.90;;;;;;5114161;27;20441;-78
2023/06/29 11:57:23;;;;;;;2.90;0.90;;;27.70;40.10;;;;;;5113706;28;20525;-77
2023/06/29 11:59:50;;;;;;;3.20;1.10;;;28.10;34.40;;;;;;5112073;28;20498;-78
2023/06/29 12:02:16;;;;;;;0.90;0.90;;;27.70;35.90;;;;;;5104858;28;20496;-78
2023/06/29 12:04:57;;;;;;;0.80;0.80;;;27.40;33.00;;;;;;5105226;28;21013;-75
2023/06/29 12:07:40;;;;;;;1.27;0.80;;;27.20;33.50;;;;;;5105801;28;20513;-76
2023/06/29 12:10:11;;;;;;;2.70;1.20;;;27.10;34.90;;;;;;5108595;28;20575;-78
2023/06/29 12:12:38;;;;;;;1.10;1.00;;;27.00;37.50;;;;;;5108141;28;20487;-76
2023/06/29 12:15:13;;;;;;;1.30;1.20;;;27.10;32.30;;;;;;5107139;27;20553;-78
2023/06/29 12:17:40;;;;;;;1.70;1.00;;;26.70;34.40;;;;;;5104136;28;20444;-77
2023/06/29 12:20:13;;;;;;;1.73;1.57;;;26.80;33.40;;;;;;5107610;28;20490;-76
2023/06/29 12:22:40;;;;;;;0.80;0.80;;;27.30;35.10;;;;;;5108324;27;20471;-78
2023/06/29 12:25:12;;;;;;;2.60;1.07;;;27.10;35.90;;;;;;5112284;27;20554;-77
2023/06/29 12:27:42;;;;;;;2.43;0.93;;;27.10;34.20;;;;;;5105750;27;20468;-77
2023/06/29 12:30:11;;;;;;;2.03;1.23;;;27.20;38.90;;;;;;5108549;28;20457;-77
2023/06/29 12:32:38;;;;;;;2.33;1.30;;;27.60;36.20;;;;;;5102451;28;20494;-78
2023/06/29 12:35:06;;;;;;;3.17;1.23;;;27.80;34.50;;;;;;5100923;28;20555;-81
2023/06/29 12:37:33;;;;;;;3.77;1.03;;;27.50;33.30;;;;;;5102117;27;20558;-76
2023/06/29 12:40:00;;;;;;;2.10;1.10;;;27.70;35.30;;;;;;5107804;27;20461;-76
2023/06/29 12:42:28;;;;;;;1.70;0.80;;;27.40;33.40;;;;;;5103195;28;20454;-76
2023/06/29 12:44:55;;;;;;;2.00;1.00;;;27.20;31.70;;;;;;5107756;27;20506;-77
2023/06/29 12:47:22;;;;;;;4.33;1.43;;;27.00;34.50;;;;;;5104852;28;20448;-76
2023/06/29 12:49:50;;;;;;;2.30;0.83;;;27.10;35.80;;;;;;5098721;27;20583;-76
2023/06/29 12:52:18;;;;;;;0.73;0.70;;;27.00;35.80;;;;;;5100471;28;20535;-75